»·PEaware :: N6661P L71-KWHP

N6661P :: L71-KWHP

FLIGHT INFORMATION

Flight Status: Arrived
Operator: Privately registered:
United States
More flights under this callsign
Pilot: Tom L. (6372)
Aircraft: PIPER PA-24 COMMANCHE
(PA24)
More flights by this aircraft type
Origin: L71 California City Mun
United States
Destination: KWHP Whiteman
United States
More flights between these airports :: More routes between these airports
Route: +LHS
File this flight plan on PilotEdge
Remarks:
Altitude:
(Current/Filed)
10,000ft
Speed:
(Current/Filed)
145kts
Departed: 12-Apr-15 11:12 AM
Arrived: 12-Apr-15 12:01 PM
Distance/Time
Traveled:
57nm/0:48
Distance/Time
To Go:
Arrived

Flight Plot

Page will automatically refresh every two minutes.

Flight plan parsing failed; only flown route is shown


Map Options




Map Legend


Flown Route
Filed Route
Departure Airport
Arrival Airport
Navaid (VOR, NDB)
Fix

Horizontal Profiles

Position Reports

Time Latitude Longitude Heading Altitude Ground
Speed
12-Apr-15 11:04 35.150834 -118.014137 347 2458ft 0kts
12-Apr-15 11:05 35.150836 -118.014138 347 2458ft 0kts
12-Apr-15 11:06 35.150839 -118.014138 347 2458ft 0kts
12-Apr-15 11:07 35.150841 -118.014139 347 2458ft 0kts
12-Apr-15 11:08 35.151031 -118.014349 272 2458ft 8kts
12-Apr-15 11:09 35.150600 -118.016864 257 2458ft 18kts
12-Apr-15 11:10 35.149285 -118.023702 312 2458ft 3kts
12-Apr-15 11:11 35.152007 -118.013661 73 2507ft 93kts
12-Apr-15 11:12 35.157164 -117.979016 75 3466ft 112kts
12-Apr-15 11:13 35.169897 -117.945510 67 4566ft 112kts
12-Apr-15 11:14 35.189381 -117.915635 22 5412ft 125kts
12-Apr-15 11:15 35.221583 -117.905981 17 6417ft 104kts
12-Apr-15 11:16 35.251504 -117.896149 25 7009ft 115kts
12-Apr-15 11:17 35.281187 -117.883443 359 7631ft 122kts
12-Apr-15 11:18 35.300705 -117.917741 288 8259ft 130kts
12-Apr-15 11:19 35.309743 -117.961394 287 8822ft 135kts
12-Apr-15 11:20 35.319951 -118.004501 291 9439ft 130kts
12-Apr-15 11:21 35.315969 -118.045582 216 9892ft 139kts
12-Apr-15 11:22 35.282092 -118.073695 210 10021ft 156kts
12-Apr-15 11:23 35.241537 -118.097594 205 10017ft 166kts
12-Apr-15 11:24 35.201490 -118.129081 204 10092ft 167kts
12-Apr-15 11:25 35.156429 -118.147454 190 9729ft 181kts
12-Apr-15 11:26 35.109368 -118.163362 200 9682ft 168kts
12-Apr-15 11:27 35.072175 -118.189641 215 10116ft 149kts
12-Apr-15 11:28 35.037193 -118.219080 214 10277ft 158kts
12-Apr-15 11:29 35.000011 -118.249860 212 10322ft 166kts
12-Apr-15 11:30 34.964258 -118.286492 222 10502ft 173kts
12-Apr-15 11:31 34.930405 -118.332174 226 10058ft 180kts
12-Apr-15 11:32 34.891973 -118.369306 214 9980ft 173kts
12-Apr-15 11:32 34.860327 -118.399615 216 9877ft 171kts
12-Apr-15 11:34 34.817203 -118.441156 212 9874ft 168kts
12-Apr-15 11:35 34.777446 -118.471147 207 9846ft 167kts
12-Apr-15 11:35 34.745290 -118.497398 215 9821ft 167kts
12-Apr-15 11:36 34.709614 -118.533203 219 9804ft 166kts
12-Apr-15 11:37 34.673148 -118.563549 177 9786ft 153kts
12-Apr-15 11:38 34.640107 -118.541236 165 9802ft 135kts
12-Apr-15 11:39 34.601283 -118.539891 174 9008ft 139kts
12-Apr-15 11:40 34.565271 -118.534461 170 8153ft 138kts
12-Apr-15 11:41 34.528752 -118.538536 181 7506ft 136kts
12-Apr-15 11:42 34.490950 -118.542796 178 6831ft 136kts
12-Apr-15 11:43 34.453490 -118.548812 188 6140ft 143kts
12-Apr-15 11:44 34.413047 -118.560059 189 5857ft 149kts
12-Apr-15 11:45 34.372333 -118.561943 170 5926ft 145kts
12-Apr-15 11:47 34.332676 -118.573317 200 5887ft 149kts
12-Apr-15 11:48 34.292261 -118.585632 182 5701ft 147kts
12-Apr-15 11:49 34.252228 -118.586492 185 4924ft 141kts
12-Apr-15 11:50 34.214246 -118.594535 201 4867ft 135kts
12-Apr-15 11:51 34.198723 -118.622143 287 4446ft 117kts
12-Apr-15 11:52 34.213992 -118.652641 355 3977ft 121kts
12-Apr-15 11:53 34.226604 -118.615426 101 3379ft 138kts
12-Apr-15 11:54 34.223344 -118.568541 73 3694ft 137kts
12-Apr-15 11:55 34.220281 -118.522991 97 3106ft 131kts
12-Apr-15 11:56 34.216480 -118.479903 78 2875ft 126kts
12-Apr-15 11:57 34.235509 -118.446078 24 2279ft 112kts
12-Apr-15 11:58 34.262330 -118.438023 33 1910ft 87kts
12-Apr-15 11:59 34.262243 -118.416481 140 1012ft 63kts
12-Apr-15 12:00 34.257995 -118.411381 56 1007ft 7kts

Navigation Log

Ident Type
Flight plan parsing failed, navigation log unavailable